createdAt,value
2023-05-08T00:01:31.124Z,100.00
2023-05-08T00:03:58.681Z,100.00
2023-05-08T00:06:27.674Z,100.00
2023-05-08T00:08:57.632Z,100.00
2023-05-08T00:11:24.499Z,100.00
2023-05-08T00:13:51.254Z,100.00
2023-05-08T00:16:18.242Z,100.00
2023-05-08T00:18:45.112Z,100.00
2023-05-08T00:21:11.998Z,100.00
2023-05-08T00:23:38.786Z,100.00
2023-05-08T00:26:05.548Z,100.00
2023-05-08T00:28:32.331Z,100.00
2023-05-08T00:31:02.353Z,100.00
2023-05-08T00:33:29.312Z,100.00
2023-05-08T00:36:01.588Z,100.00
2023-05-08T00:38:31.634Z,100.00
2023-05-08T00:40:58.344Z,100.00
2023-05-08T00:43:28.532Z,100.00
2023-05-08T00:45:56.494Z,100.00
2023-05-08T00:48:24.082Z,100.00
2023-05-08T00:50:52.138Z,100.00
2023-05-08T00:53:19.696Z,100.00
2023-05-08T00:55:46.553Z,100.00
2023-05-08T00:58:13.752Z,100.00
2023-05-08T01:00:41.841Z,100.00
2023-05-08T01:03:09.748Z,100.00
2023-05-08T01:05:36.803Z,100.00
2023-05-08T01:08:04.004Z,100.00
2023-05-08T01:10:38.161Z,100.00
2023-05-08T01:13:11.738Z,100.00
2023-05-08T01:15:43.198Z,100.00
2023-05-08T01:18:17.622Z,100.00
2023-05-08T01:21:01.424Z,100.00
2023-05-08T01:24:06.493Z,100.00
2023-05-08T01:26:47.971Z,100.00
2023-05-08T01:29:27.719Z,100.00
2023-05-08T01:32:19.767Z,100.00
2023-05-08T01:35:00.738Z,100.00
2023-05-08T01:37:37.497Z,100.00
2023-05-08T01:40:19.905Z,100.00
2023-05-08T01:42:48.546Z,100.00
2023-05-08T01:45:26.708Z,100.00
2023-05-08T01:48:01.900Z,100.00
2023-05-08T01:50:35.607Z,100.00
2023-05-08T01:53:07.643Z,100.00
2023-05-08T01:55:36.551Z,100.00
2023-05-08T01:58:07.742Z,100.00
2023-05-08T02:00:34.575Z,100.00
2023-05-08T02:03:01.756Z,100.00
2023-05-08T02:05:28.595Z,100.00
2023-05-08T02:07:55.565Z,100.00
2023-05-08T02:10:24.935Z,100.00
2023-05-08T02:12:51.840Z,100.00
2023-05-08T02:15:18.652Z,100.00
2023-05-08T02:17:46.948Z,100.00
2023-05-08T02:20:15.267Z,100.00
2023-05-08T02:22:46.498Z,100.00
2023-05-08T02:25:14.749Z,100.00
2023-05-08T02:27:48.435Z,100.00
2023-05-08T02:30:16.531Z,100.00
2023-05-08T02:32:47.172Z,100.00
2023-05-08T02:35:16.253Z,100.00
2023-05-08T02:37:45.409Z,100.00
2023-05-08T02:40:13.266Z,100.00
2023-05-08T02:42:40.252Z,100.00
2023-05-08T02:45:08.012Z,100.00
2023-05-08T02:47:48.632Z,100.00
2023-05-08T02:50:21.794Z,100.00
2023-05-08T02:52:49.932Z,100.00
2023-05-08T02:55:38.417Z,100.00
2023-05-08T02:58:31.809Z,100.00
2023-05-08T03:01:00.920Z,100.00
2023-05-08T03:03:45.491Z,100.00
2023-05-08T03:06:14.070Z,100.00
2023-05-08T03:08:40.991Z,100.00
2023-05-08T03:11:16.265Z,100.00
2023-05-08T03:13:44.934Z,100.00
2023-05-08T03:16:17.545Z,100.00
2023-05-08T03:18:53.497Z,100.00
2023-05-08T03:21:21.318Z,100.00
2023-05-08T03:23:48.548Z,100.00
2023-05-08T03:26:22.415Z,100.00
2023-05-08T03:28:50.596Z,100.00
2023-05-08T03:31:21.759Z,100.00
2023-05-08T03:33:50.655Z,100.00
2023-05-08T03:36:17.454Z,100.00
2023-05-08T03:38:44.232Z,100.00
2023-05-08T03:41:11.916Z,100.00
2023-05-08T03:43:38.837Z,100.00
2023-05-08T03:46:07.209Z,100.00
2023-05-08T03:48:34.811Z,100.00
2023-05-08T03:51:03.319Z,100.00
2023-05-08T03:53:31.288Z,100.00
2023-05-08T03:55:59.206Z,100.00
2023-05-08T03:58:55.453Z,100.00
2023-05-08T04:01:40.833Z,100.00
2023-05-08T04:04:30.704Z,100.00
2023-05-08T04:07:26.999Z,100.00
2023-05-08T04:10:12.631Z,100.00
2023-05-08T04:12:45.701Z,100.00
2023-05-08T04:15:23.490Z,100.00
2023-05-08T04:17:54.405Z,100.00
2023-05-08T04:20:22.309Z,100.00
2023-05-08T04:22:50.484Z,100.00
2023-05-08T04:25:18.184Z,100.00
2023-05-08T04:27:45.485Z,100.00
2023-05-08T04:30:12.677Z,100.00
2023-05-08T04:33:44.875Z,100.00
2023-05-08T04:36:13.706Z,100.00
2023-05-08T04:38:41.815Z,100.00
2023-05-08T04:41:08.926Z,100.00
2023-05-08T04:43:36.135Z,100.00
2023-05-08T04:46:04.032Z,100.00
2023-05-08T04:48:33.408Z,100.00
2023-05-08T04:51:00.669Z,100.00
2023-05-08T04:53:28.249Z,100.00
2023-05-08T04:55:55.142Z,100.00
2023-05-08T04:58:22.624Z,100.00
2023-05-08T05:00:49.464Z,100.00
2023-05-08T05:03:16.963Z,100.00
2023-05-08T05:05:44.143Z,100.00
2023-05-08T05:08:11.276Z,100.00
2023-05-08T05:10:39.410Z,100.00
2023-05-08T05:13:06.339Z,100.00
2023-05-08T05:15:33.280Z,100.00
2023-05-08T05:18:00.372Z,100.00
2023-05-08T05:20:27.451Z,100.00
2023-05-08T05:22:54.225Z,100.00
2023-05-08T05:25:20.978Z,100.00
2023-05-08T05:27:47.917Z,100.00
2023-05-08T05:30:15.237Z,100.00
2023-05-08T05:32:42.566Z,100.00
2023-05-08T05:35:10.609Z,100.00
2023-05-08T05:37:38.052Z,100.00
2023-05-08T05:40:06.336Z,100.00
2023-05-08T05:42:33.825Z,100.00
2023-05-08T05:45:02.165Z,100.00
2023-05-08T05:47:29.500Z,100.00
2023-05-08T05:49:57.492Z,100.00
2023-05-08T05:52:24.224Z,100.00
2023-05-08T05:54:52.105Z,100.00
2023-05-08T05:57:19.249Z,100.00
2023-05-08T05:59:46.345Z,100.00
2023-05-08T06:02:19.076Z,100.00
2023-05-08T06:04:46.367Z,100.00
2023-05-08T06:07:13.414Z,100.00
2023-05-08T06:09:40.362Z,100.00
2023-05-08T06:12:10.360Z,100.00
2023-05-08T06:14:37.070Z,100.00
2023-05-08T06:17:03.839Z,100.00
2023-05-08T06:19:31.326Z,100.00
2023-05-08T06:21:58.224Z,100.00
2023-05-08T06:24:24.974Z,100.00
2023-05-08T06:26:51.992Z,100.00
2023-05-08T06:29:18.767Z,100.00
2023-05-08T06:31:45.978Z,100.00
2023-05-08T06:34:13.198Z,100.00
2023-05-08T06:36:40.042Z,100.00
2023-05-08T06:39:07.627Z,100.00
2023-05-08T06:41:34.484Z,100.00
2023-05-08T06:44:01.390Z,100.00
2023-05-08T06:46:30.041Z,100.00
2023-05-08T06:48:57.149Z,100.00
2023-05-08T06:51:24.023Z,100.00
2023-05-08T06:53:50.786Z,100.00
2023-05-08T06:56:17.572Z,100.00
2023-05-08T06:58:50.530Z,100.00
2023-05-08T07:01:24.202Z,100.00
2023-05-08T07:03:51.312Z,100.00
2023-05-08T07:06:18.166Z,100.00
2023-05-08T07:08:44.946Z,100.00
2023-05-08T07:11:11.942Z,100.00
2023-05-08T07:13:38.917Z,100.00
2023-05-08T07:16:11.007Z,100.00
2023-05-08T07:18:38.116Z,100.00
2023-05-08T07:21:05.591Z,100.00
2023-05-08T07:23:32.399Z,100.00
2023-05-08T07:25:59.515Z,100.00
2023-05-08T07:28:26.417Z,100.00
2023-05-08T07:30:53.314Z,100.00
2023-05-08T07:33:20.093Z,100.00
2023-05-08T07:35:46.866Z,100.00
2023-05-08T07:38:13.648Z,100.00
2023-05-08T07:40:40.601Z,100.00
2023-05-08T07:43:07.346Z,100.00
2023-05-08T07:45:34.991Z,100.00
2023-05-08T07:48:01.798Z,100.00
2023-05-08T07:50:28.603Z,100.00
2023-05-08T07:52:55.445Z,100.00
2023-05-08T07:55:22.287Z,100.00
2023-05-08T07:57:49.048Z,100.00
2023-05-08T08:00:16.330Z,100.00
2023-05-08T08:02:43.948Z,100.00
2023-05-08T08:05:11.367Z,100.00
2023-05-08T08:07:41.532Z,100.00
2023-05-08T08:10:08.897Z,100.00
2023-05-08T08:12:35.966Z,100.00
2023-05-08T08:15:02.936Z,100.00
2023-05-08T08:17:29.731Z,100.00
2023-05-08T08:19:57.220Z,100.00
2023-05-08T08:22:24.960Z,100.00
2023-05-08T08:24:54.710Z,100.00
2023-05-08T08:27:22.266Z,100.00
2023-05-08T08:29:49.193Z,100.00
2023-05-08T08:32:16.226Z,100.00
2023-05-08T08:34:43.104Z,100.00
2023-05-08T08:37:10.140Z,100.00
2023-05-08T08:39:36.943Z,100.00
2023-05-08T08:42:03.837Z,100.00
2023-05-08T08:44:30.720Z,100.00
2023-05-08T08:46:58.615Z,100.00
2023-05-08T08:49:34.183Z,100.00
2023-05-08T08:52:10.991Z,100.00
2023-05-08T08:54:38.034Z,100.00
2023-05-08T08:57:09.264Z,100.00
2023-05-08T08:59:40.654Z,100.00
2023-05-08T09:02:11.690Z,100.00
2023-05-08T09:04:38.952Z,100.00
2023-05-08T09:07:05.806Z,100.00
2023-05-08T09:09:36.068Z,100.00
2023-05-08T09:12:02.929Z,100.00
2023-05-08T09:14:29.819Z,100.00
2023-05-08T09:16:56.704Z,100.00
2023-05-08T09:19:26.254Z,100.00
2023-05-08T09:21:55.245Z,100.00
2023-05-08T09:24:23.131Z,100.00
2023-05-08T09:26:50.143Z,100.00
2023-05-08T09:29:18.279Z,100.00
2023-05-08T09:31:46.616Z,100.00
2023-05-08T09:34:23.991Z,100.00
2023-05-08T09:36:51.040Z,100.00
2023-05-08T09:39:22.439Z,100.00
2023-05-08T09:41:59.119Z,100.00
2023-05-08T09:44:26.081Z,100.00
2023-05-08T09:46:53.930Z,100.00
2023-05-08T09:49:20.819Z,100.00
2023-05-08T09:51:54.235Z,100.00
2023-05-08T09:54:21.202Z,100.00
2023-05-08T09:56:48.014Z,100.00
2023-05-08T09:59:28.496Z,100.00
2023-05-08T10:01:56.165Z,100.00
2023-05-08T10:04:33.841Z,100.00
2023-05-08T10:07:01.041Z,100.00
2023-05-08T10:09:32.960Z,100.00
2023-05-08T10:12:09.693Z,100.00
2023-05-08T10:14:36.833Z,100.00
2023-05-08T10:17:04.136Z,100.00
2023-05-08T10:19:31.542Z,100.00
2023-05-08T10:21:58.430Z,100.00
2023-05-08T10:24:33.417Z,100.00
2023-05-08T10:27:28.103Z,100.00
2023-05-08T10:29:56.186Z,100.00
2023-05-08T10:32:23.756Z,100.00
2023-05-08T10:34:53.911Z,100.00
2023-05-08T10:37:22.389Z,100.00
2023-05-08T10:39:49.180Z,100.00
2023-05-08T10:42:16.005Z,100.00
2023-05-08T10:44:42.834Z,100.00
2023-05-08T10:47:31.295Z,100.00
2023-05-08T10:50:08.820Z,100.00
2023-05-08T10:52:45.027Z,100.00
2023-05-08T10:55:31.149Z,100.00
2023-05-08T10:58:11.252Z,100.00
2023-05-08T11:00:53.409Z,100.00
2023-05-08T11:03:31.497Z,100.00
2023-05-08T11:06:00.951Z,100.00
2023-05-08T11:08:28.762Z,100.00
2023-05-08T11:10:58.841Z,100.00
2023-05-08T11:13:36.410Z,100.00
2023-05-08T11:16:03.813Z,100.00
2023-05-08T11:18:45.778Z,100.00
2023-05-08T11:21:16.621Z,100.00
2023-05-08T11:23:43.719Z,100.00
2023-05-08T11:26:14.291Z,100.00
2023-05-08T11:28:58.492Z,100.00
2023-05-08T11:31:25.429Z,100.00
2023-05-08T11:33:52.261Z,100.00
2023-05-08T11:36:22.853Z,100.00
2023-05-08T11:39:19.191Z,100.00
2023-05-08T11:41:48.114Z,100.00
2023-05-08T11:44:20.583Z,100.00
2023-05-08T11:46:51.757Z,100.00
2023-05-08T11:49:23.860Z,100.00
2023-05-08T11:51:58.063Z,100.00
2023-05-08T11:54:25.540Z,100.00
2023-05-08T11:56:54.925Z,100.00
2023-05-08T11:59:22.196Z,100.00
2023-05-08T12:02:06.923Z,100.00
2023-05-08T12:04:46.767Z,100.00
2023-05-08T12:07:13.950Z,100.00
2023-05-08T12:09:40.781Z,100.00
2023-05-08T12:12:07.760Z,100.00
2023-05-08T12:14:34.640Z,100.00
2023-05-08T12:17:02.749Z,100.00
2023-05-08T12:19:29.683Z,100.00
2023-05-08T12:21:57.040Z,100.00
2023-05-08T12:24:24.415Z,100.00
2023-05-08T12:26:54.709Z,100.00
2023-05-08T12:29:21.456Z,100.00
2023-05-08T12:31:48.505Z,100.00
2023-05-08T12:34:15.694Z,100.00
2023-05-08T12:36:42.457Z,100.00
2023-05-08T12:39:13.108Z,100.00
2023-05-08T12:41:50.026Z,100.00
2023-05-08T12:44:22.370Z,100.00
2023-05-08T12:46:53.287Z,100.00
2023-05-08T12:49:25.305Z,100.00
2023-05-08T12:51:53.077Z,100.00
2023-05-08T12:54:20.046Z,100.00
2023-05-08T12:56:47.264Z,100.00
2023-05-08T12:59:14.415Z,100.00
2023-05-08T13:01:41.287Z,99.70
2023-05-08T13:04:08.404Z,98.83
2023-05-08T13:06:35.764Z,98.57
2023-05-08T13:09:02.930Z,98.29
2023-05-08T13:11:34.391Z,97.92
2023-05-08T13:14:01.387Z,97.43
2023-05-08T13:16:28.254Z,98.18
2023-05-08T13:18:55.171Z,98.17
2023-05-08T13:21:21.962Z,97.80
2023-05-08T13:23:48.915Z,96.61
2023-05-08T13:26:15.726Z,95.40
2023-05-08T13:28:42.529Z,95.54
2023-05-08T13:31:09.413Z,95.62
2023-05-08T13:33:38.462Z,95.46
2023-05-08T13:36:05.417Z,96.00
2023-05-08T13:38:32.893Z,96.65
2023-05-08T13:40:59.756Z,96.92
2023-05-08T13:43:26.595Z,96.97
2023-05-08T13:45:54.207Z,96.38
2023-05-08T13:48:21.418Z,95.97
2023-05-08T13:50:48.171Z,96.54
2023-05-08T13:53:14.979Z,97.04
2023-05-08T13:55:42.363Z,96.93
2023-05-08T13:58:09.328Z,96.94
2023-05-08T14:00:36.331Z,95.87
2023-05-08T14:03:03.157Z,95.47
2023-05-08T14:05:30.039Z,93.25
2023-05-08T14:07:56.879Z,91.30
2023-05-08T14:10:23.631Z,90.77
2023-05-08T14:12:50.402Z,90.48
2023-05-08T14:15:17.262Z,90.08
2023-05-08T14:17:44.069Z,90.11
2023-05-08T14:20:12.499Z,87.19
2023-05-08T14:22:39.723Z,83.22
2023-05-08T14:25:07.577Z,78.28
2023-05-08T14:27:34.306Z,75.87
2023-05-08T14:30:01.492Z,74.04
2023-05-08T14:32:28.450Z,73.27
2023-05-08T14:34:55.544Z,73.44
2023-05-08T14:37:22.275Z,73.40
2023-05-08T14:39:49.348Z,74.31
2023-05-08T14:42:23.029Z,75.10
2023-05-08T14:44:51.348Z,76.32
2023-05-08T14:47:18.319Z,76.68
2023-05-08T14:49:45.210Z,76.76
2023-05-08T14:52:12.505Z,77.99
2023-05-08T14:54:39.590Z,76.29
2023-05-08T14:57:06.852Z,74.29
2023-05-08T14:59:33.888Z,72.68
2023-05-08T15:02:00.930Z,71.80
2023-05-08T15:04:27.939Z,71.18
2023-05-08T15:06:54.698Z,71.06
2023-05-08T15:09:21.565Z,71.40
2023-05-08T15:11:48.768Z,71.51
2023-05-08T15:14:15.580Z,71.88
2023-05-08T15:16:42.435Z,73.18
2023-05-08T15:19:09.598Z,74.60
2023-05-08T15:21:36.713Z,75.90
2023-05-08T15:24:03.704Z,77.14
2023-05-08T15:26:30.832Z,78.20
2023-05-08T15:28:57.654Z,78.95
2023-05-08T15:31:24.658Z,79.60
2023-05-08T15:33:51.870Z,80.21
2023-05-08T15:36:18.723Z,81.01
2023-05-08T15:38:45.525Z,82.63
2023-05-08T15:41:15.074Z,82.78
2023-05-08T15:43:43.191Z,81.95
2023-05-08T15:46:10.374Z,81.17
2023-05-08T15:48:37.320Z,80.91
2023-05-08T15:51:04.308Z,80.69
2023-05-08T15:53:31.223Z,80.16
2023-05-08T15:55:58.042Z,80.02
2023-05-08T15:58:25.039Z,79.72
2023-05-08T16:00:52.296Z,79.29
2023-05-08T16:03:19.540Z,79.61
2023-05-08T16:05:46.435Z,79.67
2023-05-08T16:08:13.937Z,77.51
2023-05-08T16:10:41.416Z,75.38
2023-05-08T16:13:08.430Z,71.66
2023-05-08T16:15:35.308Z,68.26
2023-05-08T16:18:03.083Z,66.65
2023-05-08T16:20:30.571Z,64.75
2023-05-08T16:22:58.668Z,62.48
2023-05-08T16:25:25.844Z,60.79
2023-05-08T16:27:52.709Z,59.54
2023-05-08T16:30:19.747Z,58.53
2023-05-08T16:32:46.872Z,58.00
2023-05-08T16:35:14.864Z,57.94
2023-05-08T16:37:42.156Z,58.03
2023-05-08T16:40:09.498Z,58.09
2023-05-08T16:42:37.167Z,58.28
2023-05-08T16:45:08.150Z,58.68
2023-05-08T16:50:39.175Z,59.95
2023-05-08T16:53:06.588Z,60.63
2023-05-08T16:55:33.334Z,61.37
2023-05-08T16:58:00.352Z,62.08
2023-05-08T17:00:27.488Z,62.85
2023-05-08T17:02:54.648Z,63.69
2023-05-08T17:05:21.872Z,64.66
2023-05-08T17:07:49.188Z,65.77
2023-05-08T17:10:16.175Z,67.01
2023-05-08T17:12:42.943Z,68.11
2023-05-08T17:15:10.084Z,69.12
2023-05-08T17:17:36.933Z,70.10
2023-05-08T17:20:04.683Z,71.11
2023-05-08T17:22:31.460Z,72.14
2023-05-08T17:24:58.385Z,73.01
2023-05-08T17:27:25.254Z,73.92
2023-05-08T17:29:52.111Z,74.71
2023-05-08T17:32:18.914Z,75.62
2023-05-08T17:34:45.900Z,76.69
2023-05-08T17:37:12.712Z,77.90
2023-05-08T17:39:39.527Z,78.68
2023-05-08T17:42:06.732Z,79.85
2023-05-08T17:44:33.698Z,80.95
2023-05-08T17:47:00.697Z,82.11
2023-05-08T17:49:27.722Z,83.02
2023-05-08T17:51:54.527Z,83.90
2023-05-08T17:54:21.421Z,84.91
2023-05-08T17:56:48.748Z,85.69
2023-05-08T17:59:15.557Z,86.29
2023-05-08T18:01:42.368Z,87.04
2023-05-08T18:04:09.361Z,87.67
2023-05-08T18:06:36.452Z,88.46
2023-05-08T18:09:03.308Z,89.13
2023-05-08T18:11:30.131Z,89.69
2023-05-08T18:13:57.014Z,90.45
2023-05-08T18:16:24.111Z,91.24
2023-05-08T18:18:51.971Z,91.68
2023-05-08T18:21:19.019Z,92.34
2023-05-08T18:23:45.984Z,92.55
2023-05-08T18:26:14.836Z,92.76
2023-05-08T18:28:41.867Z,93.22
2023-05-08T18:31:08.697Z,93.35
2023-05-08T18:33:37.271Z,93.38
2023-05-08T18:36:05.598Z,93.23
2023-05-08T18:38:33.113Z,93.26
2023-05-08T18:41:04.023Z,93.52
2023-05-08T18:43:30.939Z,93.91
2023-05-08T18:45:59.135Z,94.25
2023-05-08T18:48:26.442Z,94.63
2023-05-08T18:50:53.415Z,94.93
2023-05-08T18:53:20.300Z,95.30
2023-05-08T18:55:47.158Z,95.50
2023-05-08T18:58:13.957Z,96.05
2023-05-08T19:00:40.976Z,96.57
2023-05-08T19:03:08.036Z,97.01
2023-05-08T19:05:35.329Z,97.60
2023-05-08T19:08:02.833Z,97.93
2023-05-08T19:10:29.863Z,98.43
2023-05-08T19:12:56.888Z,98.87
2023-05-08T19:15:23.805Z,99.25
2023-05-08T19:17:52.907Z,99.56
2023-05-08T19:20:20.287Z,99.84
2023-05-08T19:22:48.695Z,99.98
2023-05-08T19:25:16.315Z,100.00
2023-05-08T19:27:43.347Z,100.00
2023-05-08T19:30:10.645Z,100.00
2023-05-08T19:32:37.723Z,100.00
2023-05-08T19:35:05.173Z,100.00
2023-05-08T19:37:32.248Z,100.00
2023-05-08T19:39:59.150Z,100.00
2023-05-08T19:42:26.327Z,100.00
2023-05-08T19:44:53.262Z,100.00
2023-05-08T19:47:20.223Z,100.00
2023-05-08T19:49:47.181Z,100.00
2023-05-08T19:52:14.059Z,100.00
2023-05-08T19:54:40.824Z,100.00
2023-05-08T19:57:07.794Z,100.00
2023-05-08T19:59:35.044Z,100.00
2023-05-08T20:02:01.933Z,100.00
2023-05-08T20:04:29.021Z,100.00
2023-05-08T20:06:55.914Z,100.00
2023-05-08T20:09:22.759Z,100.00
2023-05-08T20:11:50.001Z,100.00
2023-05-08T20:14:16.903Z,100.00
2023-05-08T20:16:43.969Z,100.00
2023-05-08T20:19:11.082Z,100.00
2023-05-08T20:21:37.932Z,100.00
2023-05-08T20:24:05.131Z,100.00
2023-05-08T20:26:32.530Z,100.00
2023-05-08T20:28:59.897Z,100.00
2023-05-08T20:31:27.884Z,100.00
2023-05-08T20:33:54.846Z,100.00
2023-05-08T20:36:21.663Z,100.00
2023-05-08T20:38:48.506Z,100.00
2023-05-08T20:41:15.380Z,100.00
2023-05-08T20:43:42.246Z,100.00
2023-05-08T20:46:10.144Z,100.00
2023-05-08T20:48:38.476Z,100.00
2023-05-08T20:51:05.582Z,100.00
2023-05-08T20:53:33.159Z,100.00
2023-05-08T20:56:02.163Z,100.00
2023-05-08T20:58:29.179Z,100.00
2023-05-08T21:00:56.290Z,100.00
2023-05-08T21:03:23.344Z,100.00
2023-05-08T21:05:50.327Z,100.00
2023-05-08T21:08:17.612Z,100.00
2023-05-08T21:10:44.513Z,100.00
2023-05-08T21:13:11.694Z,100.00
2023-05-08T21:15:38.705Z,100.00
2023-05-08T21:18:05.926Z,100.00
2023-05-08T21:20:34.695Z,100.00
2023-05-08T21:23:01.585Z,100.00
2023-05-08T21:25:28.566Z,100.00
2023-05-08T21:27:55.551Z,100.00
2023-05-08T21:30:22.413Z,100.00
2023-05-08T21:32:49.338Z,100.00
2023-05-08T21:35:16.379Z,100.00
2023-05-08T21:37:43.517Z,100.00
2023-05-08T21:40:10.515Z,100.00
2023-05-08T21:42:37.285Z,100.00
2023-05-08T21:45:04.536Z,100.00
2023-05-08T21:47:31.447Z,100.00
2023-05-08T21:49:58.329Z,100.00
2023-05-08T21:52:26.222Z,100.00
2023-05-08T21:54:53.058Z,100.00
2023-05-08T21:57:19.960Z,100.00
2023-05-08T21:59:47.010Z,100.00
2023-05-08T22:02:13.918Z,100.00
2023-05-08T22:04:40.801Z,100.00
2023-05-08T22:07:07.664Z,100.00
2023-05-08T22:09:34.623Z,100.00
2023-05-08T22:12:01.395Z,100.00
2023-05-08T22:14:28.309Z,100.00
2023-05-08T22:16:55.212Z,100.00
2023-05-08T22:19:22.263Z,100.00
2023-05-08T22:21:49.219Z,100.00
2023-05-08T22:24:16.109Z,100.00
2023-05-08T22:26:42.955Z,100.00
2023-05-08T22:29:10.161Z,100.00
2023-05-08T22:31:36.941Z,100.00
2023-05-08T22:34:04.350Z,100.00
2023-05-08T22:36:31.112Z,100.00
2023-05-08T22:38:58.039Z,100.00
2023-05-08T22:41:24.929Z,100.00
2023-05-08T22:43:51.831Z,100.00
2023-05-08T22:46:18.757Z,100.00
2023-05-08T22:48:45.930Z,100.00
2023-05-08T22:51:13.443Z,100.00
2023-05-08T22:53:40.215Z,100.00
2023-05-08T22:56:07.034Z,100.00
2023-05-08T22:58:33.753Z,100.00
2023-05-08T23:01:00.622Z,100.00
2023-05-08T23:03:27.656Z,100.00
2023-05-08T23:05:54.566Z,100.00
2023-05-08T23:08:22.612Z,100.00
2023-05-08T23:10:49.524Z,100.00
2023-05-08T23:13:16.325Z,100.00
2023-05-08T23:15:43.132Z,100.00
2023-05-08T23:18:10.024Z,100.00
2023-05-08T23:20:36.941Z,100.00
2023-05-08T23:23:03.704Z,100.00
2023-05-08T23:25:30.666Z,100.00
2023-05-08T23:27:57.518Z,100.00
2023-05-08T23:30:24.286Z,100.00
2023-05-08T23:32:51.447Z,100.00
2023-05-08T23:35:18.304Z,100.00
2023-05-08T23:37:45.184Z,100.00
2023-05-08T23:40:12.338Z,100.00
2023-05-08T23:42:40.011Z,100.00
2023-05-08T23:45:07.922Z,100.00
2023-05-08T23:47:34.720Z,100.00
2023-05-08T23:50:01.550Z,100.00
2023-05-08T23:52:28.885Z,100.00
2023-05-08T23:54:55.799Z,100.00
2023-05-08T23:57:23.237Z,100.00
2023-05-08T23:59:49.998Z,100.00
